sensor_id;sensor_type;location;lat;lon;timestamp;P1;P2;P0
67892;PMS7003;54688;52.376;16.744;2023-07-31T00:02:21;4;4;
67892;PMS7003;54688;52.376;16.744;2023-07-31T00:05:23;5;4;
67892;PMS7003;54688;52.376;16.744;2023-07-31T00:08:25;4;4;
67892;PMS7003;54688;52.376;16.744;2023-07-31T00:11:27;5;5;
67892;PMS7003;54688;52.376;16.744;2023-07-31T00:14:30;4;4;
67892;PMS7003;54688;52.376;16.744;2023-07-31T00:17:32;7;6;
67892;PMS7003;54688;52.376;16.744;2023-07-31T00:20:34;6;5;
67892;PMS7003;54688;52.376;16.744;2023-07-31T00:26:34;5;5;
67892;PMS7003;54688;52.376;16.744;2023-07-31T00:29:36;5;5;
67892;PMS7003;54688;52.376;16.744;2023-07-31T00:32:38;5;5;
67892;PMS7003;54688;52.376;16.744;2023-07-31T00:35:40;4;4;
67892;PMS7003;54688;52.376;16.744;2023-07-31T00:38:42;6;6;
67892;PMS7003;54688;52.376;16.744;2023-07-31T00:41:44;6;3;
67892;PMS7003;54688;52.376;16.744;2023-07-31T00:44:46;5;3;
67892;PMS7003;54688;52.376;16.744;2023-07-31T00:47:49;4;4;
67892;PMS7003;54688;52.376;16.744;2023-07-31T00:50:50;6;6;
67892;PMS7003;54688;52.376;16.744;2023-07-31T00:53:52;3;3;
67892;PMS7003;54688;52.376;16.744;2023-07-31T00:56:54;4;4;
67892;PMS7003;54688;52.376;16.744;2023-07-31T00:59:57;4;4;
67892;PMS7003;54688;52.376;16.744;2023-07-31T01:02:59;3;3;
67892;PMS7003;54688;52.376;16.744;2023-07-31T01:06:14;8;5;
67892;PMS7003;54688;52.376;16.744;2023-07-31T01:09:20;5;5;
67892;PMS7003;54688;52.376;16.744;2023-07-31T01:12:27;4;4;
67892;PMS7003;54688;52.376;16.744;2023-07-31T01:15:29;4;4;
67892;PMS7003;54688;52.376;16.744;2023-07-31T01:18:31;4;3;
67892;PMS7003;54688;52.376;16.744;2023-07-31T01:21:48;4;4;
67892;PMS7003;54688;52.376;16.744;2023-07-31T01:25:00;5;5;
67892;PMS7003;54688;52.376;16.744;2023-07-31T01:28:10;5;5;
67892;PMS7003;54688;52.376;16.744;2023-07-31T01:31:20;3;3;
67892;PMS7003;54688;52.376;16.744;2023-07-31T01:34:26;7;7;
67892;PMS7003;54688;52.376;16.744;2023-07-31T01:37:28;3;3;
67892;PMS7003;54688;52.376;16.744;2023-07-31T01:40:30;5;4;
67892;PMS7003;54688;52.376;16.744;2023-07-31T01:43:32;4;4;
67892;PMS7003;54688;52.376;16.744;2023-07-31T01:46:35;6;6;
67892;PMS7003;54688;52.376;16.744;2023-07-31T01:49:36;6;4;
67892;PMS7003;54688;52.376;16.744;2023-07-31T01:52:38;4;4;
67892;PMS7003;54688;52.376;16.744;2023-07-31T01:55:40;5;5;
67892;PMS7003;54688;52.376;16.744;2023-07-31T01:58:42;3;3;
67892;PMS7003;54688;52.376;16.744;2023-07-31T02:01:44;3;3;
67892;PMS7003;54688;52.376;16.744;2023-07-31T02:04:47;4;4;
67892;PMS7003;54688;52.376;16.744;2023-07-31T02:07:48;6;5;
67892;PMS7003;54688;52.376;16.744;2023-07-31T02:10:51;6;6;
67892;PMS7003;54688;52.376;16.744;2023-07-31T02:13:53;4;4;
67892;PMS7003;54688;52.376;16.744;2023-07-31T02:16:54;6;5;
67892;PMS7003;54688;52.376;16.744;2023-07-31T02:19:56;8;5;
67892;PMS7003;54688;52.376;16.744;2023-07-31T02:22:58;6;5;
67892;PMS7003;54688;52.376;16.744;2023-07-31T02:26:00;4;4;
67892;PMS7003;54688;52.376;16.744;2023-07-31T02:29:02;4;4;
67892;PMS7003;54688;52.376;16.744;2023-07-31T02:32:05;4;4;
67892;PMS7003;54688;52.376;16.744;2023-07-31T02:35:07;5;3;
67892;PMS7003;54688;52.376;16.744;2023-07-31T02:38:09;7;4;
67892;PMS7003;54688;52.376;16.744;2023-07-31T02:41:11;5;5;
67892;PMS7003;54688;52.376;16.744;2023-07-31T02:44:13;5;4;
67892;PMS7003;54688;52.376;16.744;2023-07-31T02:47:15;4;4;
67892;PMS7003;54688;52.376;16.744;2023-07-31T02:50:17;6;5;
67892;PMS7003;54688;52.376;16.744;2023-07-31T02:53:20;6;6;
67892;PMS7003;54688;52.376;16.744;2023-07-31T02:56:22;5;4;
67892;PMS7003;54688;52.376;16.744;2023-07-31T02:59:23;4;4;
67892;PMS7003;54688;52.376;16.744;2023-07-31T03:02:25;6;5;
67892;PMS7003;54688;52.376;16.744;2023-07-31T03:05:27;7;6;
67892;PMS7003;54688;52.376;16.744;2023-07-31T03:08:29;5;5;
67892;PMS7003;54688;52.376;16.744;2023-07-31T03:11:31;6;3;
67892;PMS7003;54688;52.376;16.744;2023-07-31T03:14:33;5;5;
67892;PMS7003;54688;52.376;16.744;2023-07-31T03:17:35;5;5;
67892;PMS7003;54688;52.376;16.744;2023-07-31T03:20:37;5;5;
67892;PMS7003;54688;52.376;16.744;2023-07-31T03:23:43;4;4;
67892;PMS7003;54688;52.376;16.744;2023-07-31T03:26:45;7;6;
67892;PMS7003;54688;52.376;16.744;2023-07-31T03:29:46;6;5;
67892;PMS7003;54688;52.376;16.744;2023-07-31T03:32:48;7;7;
67892;PMS7003;54688;52.376;16.744;2023-07-31T03:35:51;6;6;
67892;PMS7003;54688;52.376;16.744;2023-07-31T03:38:53;8;8;
67892;PMS7003;54688;52.376;16.744;2023-07-31T03:41:56;10;9;
67892;PMS7003;54688;52.376;16.744;2023-07-31T03:44:58;7;7;
67892;PMS7003;54688;52.376;16.744;2023-07-31T03:48:00;7;7;
67892;PMS7003;54688;52.376;16.744;2023-07-31T03:51:03;8;6;
67892;PMS7003;54688;52.376;16.744;2023-07-31T03:54:06;5;5;
67892;PMS7003;54688;52.376;16.744;2023-07-31T03:57:08;7;7;
67892;PMS7003;54688;52.376;16.744;2023-07-31T04:00:11;8;6;
67892;PMS7003;54688;52.376;16.744;2023-07-31T04:03:12;5;5;
67892;PMS7003;54688;52.376;16.744;2023-07-31T04:06:14;5;5;
67892;PMS7003;54688;52.376;16.744;2023-07-31T04:09:15;12;8;
67892;PMS7003;54688;52.376;16.744;2023-07-31T04:12:18;7;7;
67892;PMS7003;54688;52.376;16.744;2023-07-31T04:15:20;7;7;
67892;PMS7003;54688;52.376;16.744;2023-07-31T04:18:24;10;8;
67892;PMS7003;54688;52.376;16.744;2023-07-31T04:21:26;10;7;
67892;PMS7003;54688;52.376;16.744;2023-07-31T04:27:27;7;7;
67892;PMS7003;54688;52.376;16.744;2023-07-31T04:30:29;7;7;
67892;PMS7003;54688;52.376;16.744;2023-07-31T04:33:31;9;8;
67892;PMS7003;54688;52.376;16.744;2023-07-31T04:36:33;9;7;
67892;PMS7003;54688;52.376;16.744;2023-07-31T04:39:36;9;8;
67892;PMS7003;54688;52.376;16.744;2023-07-31T04:45:35;9;9;
67892;PMS7003;54688;52.376;16.744;2023-07-31T04:48:37;10;7;
67892;PMS7003;54688;52.376;16.744;2023-07-31T04:51:39;9;7;
67892;PMS7003;54688;52.376;16.744;2023-07-31T04:54:42;9;7;
67892;PMS7003;54688;52.376;16.744;2023-07-31T04:57:44;8;8;
67892;PMS7003;54688;52.376;16.744;2023-07-31T05:00:46;7;7;
67892;PMS7003;54688;52.376;16.744;2023-07-31T05:03:48;5;5;
67892;PMS7003;54688;52.376;16.744;2023-07-31T05:06:50;7;7;
67892;PMS7003;54688;52.376;16.744;2023-07-31T05:09:52;7;7;
67892;PMS7003;54688;52.376;16.744;2023-07-31T05:12:54;15;11;
67892;PMS7003;54688;52.376;16.744;2023-07-31T05:15:56;7;6;
67892;PMS7003;54688;52.376;16.744;2023-07-31T05:18:59;10;10;
67892;PMS7003;54688;52.376;16.744;2023-07-31T05:22:01;7;6;
67892;PMS7003;54688;52.376;16.744;2023-07-31T05:28:02;5;5;
67892;PMS7003;54688;52.376;16.744;2023-07-31T05:31:05;8;7;
67892;PMS7003;54688;52.376;16.744;2023-07-31T05:34:07;9;8;
67892;PMS7003;54688;52.376;16.744;2023-07-31T05:37:10;10;10;
67892;PMS7003;54688;52.376;16.744;2023-07-31T05:40:12;7;6;
67892;PMS7003;54688;52.376;16.744;2023-07-31T05:43:14;10;8;
67892;PMS7003;54688;52.376;16.744;2023-07-31T05:46:16;10;8;
67892;PMS7003;54688;52.376;16.744;2023-07-31T05:49:18;8;7;
67892;PMS7003;54688;52.376;16.744;2023-07-31T05:52:19;9;7;
67892;PMS7003;54688;52.376;16.744;2023-07-31T05:55:21;9;8;
67892;PMS7003;54688;52.376;16.744;2023-07-31T05:58:23;6;6;
67892;PMS7003;54688;52.376;16.744;2023-07-31T06:01:25;9;8;
67892;PMS7003;54688;52.376;16.744;2023-07-31T06:04:27;8;8;
67892;PMS7003;54688;52.376;16.744;2023-07-31T06:07:29;11;8;
67892;PMS7003;54688;52.376;16.744;2023-07-31T06:10:32;8;8;
67892;PMS7003;54688;52.376;16.744;2023-07-31T06:13:34;6;6;
67892;PMS7003;54688;52.376;16.744;2023-07-31T06:16:37;6;5;
67892;PMS7003;54688;52.376;16.744;2023-07-31T06:19:38;10;7;
67892;PMS7003;54688;52.376;16.744;2023-07-31T06:22:40;6;6;
67892;PMS7003;54688;52.376;16.744;2023-07-31T06:25:42;9;7;
67892;PMS7003;54688;52.376;16.744;2023-07-31T06:28:44;8;6;
67892;PMS7003;54688;52.376;16.744;2023-07-31T06:31:47;6;6;
67892;PMS7003;54688;52.376;16.744;2023-07-31T06:34:48;4;4;
67892;PMS7003;54688;52.376;16.744;2023-07-31T06:37:51;8;8;
67892;PMS7003;54688;52.376;16.744;2023-07-31T06:40:53;7;5;
67892;PMS7003;54688;52.376;16.744;2023-07-31T06:43:56;7;5;
67892;PMS7003;54688;52.376;16.744;2023-07-31T06:46:58;8;6;
67892;PMS7003;54688;52.376;16.744;2023-07-31T06:50:01;7;6;
67892;PMS7003;54688;52.376;16.744;2023-07-31T06:53:04;6;6;
67892;PMS7003;54688;52.376;16.744;2023-07-31T06:56:06;8;7;
67892;PMS7003;54688;52.376;16.744;2023-07-31T06:59:07;5;5;
67892;PMS7003;54688;52.376;16.744;2023-07-31T07:02:10;9;5;
67892;PMS7003;54688;52.376;16.744;2023-07-31T07:05:13;4;4;
67892;PMS7003;54688;52.376;16.744;2023-07-31T07:08:15;6;4;
67892;PMS7003;54688;52.376;16.744;2023-07-31T07:11:17;3;3;
67892;PMS7003;54688;52.376;16.744;2023-07-31T07:14:19;4;4;
67892;PMS7003;54688;52.376;16.744;2023-07-31T07:17:22;4;4;
67892;PMS7003;54688;52.376;16.744;2023-07-31T07:20:25;4;2;
67892;PMS7003;54688;52.376;16.744;2023-07-31T07:23:27;4;4;
67892;PMS7003;54688;52.376;16.744;2023-07-31T07:26:31;4;4;
67892;PMS7003;54688;52.376;16.744;2023-07-31T07:29:34;4;4;
67892;PMS7003;54688;52.376;16.744;2023-07-31T07:32:36;5;5;
67892;PMS7003;54688;52.376;16.744;2023-07-31T07:35:38;3;1;
67892;PMS7003;54688;52.376;16.744;2023-07-31T07:38:40;6;4;
67892;PMS7003;54688;52.376;16.744;2023-07-31T07:41:42;4;3;
67892;PMS7003;54688;52.376;16.744;2023-07-31T07:44:44;3;3;
67892;PMS7003;54688;52.376;16.744;2023-07-31T07:47:46;3;3;
67892;PMS7003;54688;52.376;16.744;2023-07-31T07:50:49;3;3;
67892;PMS7003;54688;52.376;16.744;2023-07-31T07:53:51;5;4;
67892;PMS7003;54688;52.376;16.744;2023-07-31T07:56:54;6;6;
67892;PMS7003;54688;52.376;16.744;2023-07-31T07:59:56;5;5;
67892;PMS7003;54688;52.376;16.744;2023-07-31T08:02:58;6;4;
67892;PMS7003;54688;52.376;16.744;2023-07-31T08:06:01;5;2;
67892;PMS7003;54688;52.376;16.744;2023-07-31T08:09:03;4;3;
67892;PMS7003;54688;52.376;16.744;2023-07-31T08:12:06;4;4;
67892;PMS7003;54688;52.376;16.744;2023-07-31T08:15:09;3;3;
67892;PMS7003;54688;52.376;16.744;2023-07-31T08:18:11;5;3;
67892;PMS7003;54688;52.376;16.744;2023-07-31T08:21:14;5;5;
67892;PMS7003;54688;52.376;16.744;2023-07-31T08:24:16;4;4;
67892;PMS7003;54688;52.376;16.744;2023-07-31T08:27:18;4;3;
67892;PMS7003;54688;52.376;16.744;2023-07-31T08:30:21;5;4;
67892;PMS7003;54688;52.376;16.744;2023-07-31T08:33:23;6;5;
67892;PMS7003;54688;52.376;16.744;2023-07-31T08:36:25;5;3;
67892;PMS7003;54688;52.376;16.744;2023-07-31T08:39:28;4;3;
67892;PMS7003;54688;52.376;16.744;2023-07-31T08:42:31;4;4;
67892;PMS7003;54688;52.376;16.744;2023-07-31T08:45:35;4;2;
67892;PMS7003;54688;52.376;16.744;2023-07-31T08:48:37;3;3;
67892;PMS7003;54688;52.376;16.744;2023-07-31T08:51:40;3;3;
67892;PMS7003;54688;52.376;16.744;2023-07-31T08:54:43;4;4;
67892;PMS7003;54688;52.376;16.744;2023-07-31T08:57:46;3;2;
67892;PMS7003;54688;52.376;16.744;2023-07-31T09:00:48;4;3;
67892;PMS7003;54688;52.376;16.744;2023-07-31T09:03:51;6;4;
67892;PMS7003;54688;52.376;16.744;2023-07-31T09:06:57;5;5;
67892;PMS7003;54688;52.376;16.744;2023-07-31T09:10:02;4;3;
67892;PMS7003;54688;52.376;16.744;2023-07-31T09:13:05;4;4;
67892;PMS7003;54688;52.376;16.744;2023-07-31T09:16:08;2;2;
67892;PMS7003;54688;52.376;16.744;2023-07-31T09:19:10;1;1;
67892;PMS7003;54688;52.376;16.744;2023-07-31T09:22:14;3;3;
67892;PMS7003;54688;52.376;16.744;2023-07-31T09:25:17;3;3;
67892;PMS7003;54688;52.376;16.744;2023-07-31T09:28:19;5;4;
67892;PMS7003;54688;52.376;16.744;2023-07-31T09:31:32;5;4;
67892;PMS7003;54688;52.376;16.744;2023-07-31T09:34:37;6;4;
67892;PMS7003;54688;52.376;16.744;2023-07-31T09:37:40;6;3;
67892;PMS7003;54688;52.376;16.744;2023-07-31T09:40:43;5;3;
67892;PMS7003;54688;52.376;16.744;2023-07-31T09:43:53;5;5;
67892;PMS7003;54688;52.376;16.744;2023-07-31T09:46:55;3;3;
67892;PMS7003;54688;52.376;16.744;2023-07-31T09:49:56;4;2;
67892;PMS7003;54688;52.376;16.744;2023-07-31T09:52:58;5;5;
67892;PMS7003;54688;52.376;16.744;2023-07-31T09:56:00;6;5;
67892;PMS7003;54688;52.376;16.744;2023-07-31T09:59:04;6;5;
67892;PMS7003;54688;52.376;16.744;2023-07-31T10:02:07;5;5;
67892;PMS7003;54688;52.376;16.744;2023-07-31T10:05:12;5;5;
67892;PMS7003;54688;52.376;16.744;2023-07-31T10:08:18;5;4;
67892;PMS7003;54688;52.376;16.744;2023-07-31T10:11:23;7;5;
67892;PMS7003;54688;52.376;16.744;2023-07-31T10:14:27;4;4;
67892;PMS7003;54688;52.376;16.744;2023-07-31T10:17:30;7;5;
67892;PMS7003;54688;52.376;16.744;2023-07-31T10:20:33;4;4;
67892;PMS7003;54688;52.376;16.744;2023-07-31T10:23:36;7;6;
67892;PMS7003;54688;52.376;16.744;2023-07-31T10:26:38;5;5;
67892;PMS7003;54688;52.376;16.744;2023-07-31T10:29:42;4;4;
67892;PMS7003;54688;52.376;16.744;2023-07-31T10:32:46;11;5;
67892;PMS7003;54688;52.376;16.744;2023-07-31T10:35:49;7;3;
67892;PMS7003;54688;52.376;16.744;2023-07-31T10:38:51;6;6;
67892;PMS7003;54688;52.376;16.744;2023-07-31T10:41:53;6;6;
67892;PMS7003;54688;52.376;16.744;2023-07-31T10:47:59;6;4;
67892;PMS7003;54688;52.376;16.744;2023-07-31T10:51:07;10;8;
67892;PMS7003;54688;52.376;16.744;2023-07-31T10:54:11;6;5;
67892;PMS7003;54688;52.376;16.744;2023-07-31T10:57:19;4;4;
67892;PMS7003;54688;52.376;16.744;2023-07-31T11:00:26;5;5;
67892;PMS7003;54688;52.376;16.744;2023-07-31T11:03:41;4;4;
67892;PMS7003;54688;52.376;16.744;2023-07-31T11:06:55;3;3;
67892;PMS7003;54688;52.376;16.744;2023-07-31T11:12:56;3;3;
67892;PMS7003;54688;52.376;16.744;2023-07-31T11:15:58;3;3;
67892;PMS7003;54688;52.376;16.744;2023-07-31T11:19:00;4;3;
67892;PMS7003;54688;52.376;16.744;2023-07-31T11:22:03;3;3;
67892;PMS7003;54688;52.376;16.744;2023-07-31T11:25:05;3;3;
67892;PMS7003;54688;52.376;16.744;2023-07-31T11:28:09;2;2;
67892;PMS7003;54688;52.376;16.744;2023-07-31T11:31:12;3;3;
67892;PMS7003;54688;52.376;16.744;2023-07-31T11:34:14;5;4;
67892;PMS7003;54688;52.376;16.744;2023-07-31T11:37:17;5;3;
67892;PMS7003;54688;52.376;16.744;2023-07-31T11:40:19;4;4;
67892;PMS7003;54688;52.376;16.744;2023-07-31T11:43:22;2;2;
67892;PMS7003;54688;52.376;16.744;2023-07-31T11:46:24;4;4;
67892;PMS7003;54688;52.376;16.744;2023-07-31T11:49:27;6;5;
67892;PMS7003;54688;52.376;16.744;2023-07-31T11:52:30;5;4;
67892;PMS7003;54688;52.376;16.744;2023-07-31T11:55:34;4;3;
67892;PMS7003;54688;52.376;16.744;2023-07-31T11:58:37;5;5;
67892;PMS7003;54688;52.376;16.744;2023-07-31T12:01:40;5;5;
67892;PMS7003;54688;52.376;16.744;2023-07-31T12:04:42;8;5;
67892;PMS7003;54688;52.376;16.744;2023-07-31T12:07:47;6;6;
67892;PMS7003;54688;52.376;16.744;2023-07-31T12:10:50;7;6;
67892;PMS7003;54688;52.376;16.744;2023-07-31T12:13:52;7;5;
67892;PMS7003;54688;52.376;16.744;2023-07-31T12:16:55;4;4;
67892;PMS7003;54688;52.376;16.744;2023-07-31T12:19:58;6;6;
67892;PMS7003;54688;52.376;16.744;2023-07-31T12:23:01;5;5;
67892;PMS7003;54688;52.376;16.744;2023-07-31T12:26:05;7;7;
67892;PMS7003;54688;52.376;16.744;2023-07-31T12:29:08;5;5;
67892;PMS7003;54688;52.376;16.744;2023-07-31T12:32:20;7;7;
67892;PMS7003;54688;52.376;16.744;2023-07-31T12:35:23;8;5;
67892;PMS7003;54688;52.376;16.744;2023-07-31T12:38:26;6;6;
67892;PMS7003;54688;52.376;16.744;2023-07-31T12:41:28;9;6;
67892;PMS7003;54688;52.376;16.744;2023-07-31T12:44:31;5;5;
67892;PMS7003;54688;52.376;16.744;2023-07-31T12:47:32;2;2;
67892;PMS7003;54688;52.376;16.744;2023-07-31T12:50:39;9;6;
67892;PMS7003;54688;52.376;16.744;2023-07-31T12:53:42;4;4;
67892;PMS7003;54688;52.376;16.744;2023-07-31T12:56:43;8;5;
67892;PMS7003;54688;52.376;16.744;2023-07-31T12:59:45;9;6;
67892;PMS7003;54688;52.376;16.744;2023-07-31T13:02:47;5;4;
67892;PMS7003;54688;52.376;16.744;2023-07-31T13:05:50;6;6;
67892;PMS7003;54688;52.376;16.744;2023-07-31T13:08:52;8;6;
67892;PMS7003;54688;52.376;16.744;2023-07-31T13:11:54;10;6;
67892;PMS7003;54688;52.376;16.744;2023-07-31T13:14:56;7;7;
67892;PMS7003;54688;52.376;16.744;2023-07-31T13:17:58;7;6;
67892;PMS7003;54688;52.376;16.744;2023-07-31T13:21:00;6;4;
67892;PMS7003;54688;52.376;16.744;2023-07-31T13:24:02;5;5;
67892;PMS7003;54688;52.376;16.744;2023-07-31T13:27:05;6;4;
67892;PMS7003;54688;52.376;16.744;2023-07-31T13:30:08;4;4;
67892;PMS7003;54688;52.376;16.744;2023-07-31T13:33:10;7;5;
67892;PMS7003;54688;52.376;16.744;2023-07-31T13:36:12;4;4;
67892;PMS7003;54688;52.376;16.744;2023-07-31T13:39:14;6;4;
67892;PMS7003;54688;52.376;16.744;2023-07-31T13:42:17;4;4;
67892;PMS7003;54688;52.376;16.744;2023-07-31T13:45:20;5;4;
67892;PMS7003;54688;52.376;16.744;2023-07-31T13:48:22;6;5;
67892;PMS7003;54688;52.376;16.744;2023-07-31T13:51:24;5;4;
67892;PMS7003;54688;52.376;16.744;2023-07-31T13:54:27;5;3;
67892;PMS7003;54688;52.376;16.744;2023-07-31T13:57:29;4;4;
67892;PMS7003;54688;52.376;16.744;2023-07-31T14:00:32;4;2;
67892;PMS7003;54688;52.376;16.744;2023-07-31T14:03:35;3;3;
67892;PMS7003;54688;52.376;16.744;2023-07-31T14:06:38;5;4;
67892;PMS7003;54688;52.376;16.744;2023-07-31T14:09:40;4;4;
67892;PMS7003;54688;52.376;16.744;2023-07-31T14:12:42;5;4;
67892;PMS7003;54688;52.376;16.744;2023-07-31T14:15:44;5;5;
67892;PMS7003;54688;52.376;16.744;2023-07-31T14:18:46;3;3;
67892;PMS7003;54688;52.376;16.744;2023-07-31T14:21:48;2;2;
67892;PMS7003;54688;52.376;16.744;2023-07-31T14:24:50;5;3;
67892;PMS7003;54688;52.376;16.744;2023-07-31T14:27:52;4;4;
67892;PMS7003;54688;52.376;16.744;2023-07-31T14:30:56;2;2;
67892;PMS7003;54688;52.376;16.744;2023-07-31T14:33:58;5;4;
67892;PMS7003;54688;52.376;16.744;2023-07-31T14:37:02;4;4;
67892;PMS7003;54688;52.376;16.744;2023-07-31T14:40:05;6;2;
67892;PMS7003;54688;52.376;16.744;2023-07-31T14:43:08;4;4;
67892;PMS7003;54688;52.376;16.744;2023-07-31T14:46:10;3;3;
67892;PMS7003;54688;52.376;16.744;2023-07-31T14:49:13;3;3;
67892;PMS7003;54688;52.376;16.744;2023-07-31T14:52:15;6;4;
67892;PMS7003;54688;52.376;16.744;2023-07-31T14:55:18;3;3;
67892;PMS7003;54688;52.376;16.744;2023-07-31T14:58:20;2;2;
67892;PMS7003;54688;52.376;16.744;2023-07-31T15:01:23;5;5;
67892;PMS7003;54688;52.376;16.744;2023-07-31T15:04:25;5;3;
67892;PMS7003;54688;52.376;16.744;2023-07-31T15:07:27;3;3;
67892;PMS7003;54688;52.376;16.744;2023-07-31T15:10:31;3;3;
67892;PMS7003;54688;52.376;16.744;2023-07-31T15:13:34;1;1;
67892;PMS7003;54688;52.376;16.744;2023-07-31T15:16:37;3;2;
67892;PMS7003;54688;52.376;16.744;2023-07-31T15:19:39;3;2;
67892;PMS7003;54688;52.376;16.744;2023-07-31T15:22:41;2;2;
67892;PMS7003;54688;52.376;16.744;2023-07-31T15:25:43;2;2;
67892;PMS7003;54688;52.376;16.744;2023-07-31T15:28:49;2;2;
67892;PMS7003;54688;52.376;16.744;2023-07-31T15:31:52;2;2;
67892;PMS7003;54688;52.376;16.744;2023-07-31T15:34:54;1;1;
67892;PMS7003;54688;52.376;16.744;2023-07-31T15:37:58;2;2;
67892;PMS7003;54688;52.376;16.744;2023-07-31T15:41:00;1;1;
67892;PMS7003;54688;52.376;16.744;2023-07-31T15:44:02;2;2;
67892;PMS7003;54688;52.376;16.744;2023-07-31T15:47:05;2;2;
67892;PMS7003;54688;52.376;16.744;2023-07-31T15:50:08;1;1;
67892;PMS7003;54688;52.376;16.744;2023-07-31T15:53:10;2;2;
67892;PMS7003;54688;52.376;16.744;2023-07-31T15:56:12;3;2;
67892;PMS7003;54688;52.376;16.744;2023-07-31T15:59:15;3;1;
67892;PMS7003;54688;52.376;16.744;2023-07-31T16:02:17;2;1;
67892;PMS7003;54688;52.376;16.744;2023-07-31T16:05:20;2;1;
67892;PMS7003;54688;52.376;16.744;2023-07-31T16:08:22;2;2;
67892;PMS7003;54688;52.376;16.744;2023-07-31T16:11:24;1;1;
67892;PMS7003;54688;52.376;16.744;2023-07-31T16:14:28;2;2;
67892;PMS7003;54688;52.376;16.744;2023-07-31T16:17:29;2;2;
67892;PMS7003;54688;52.376;16.744;2023-07-31T16:20:31;3;2;
67892;PMS7003;54688;52.376;16.744;2023-07-31T16:23:34;2;1;
67892;PMS7003;54688;52.376;16.744;2023-07-31T16:26:36;4;2;
67892;PMS7003;54688;52.376;16.744;2023-07-31T16:29:39;5;3;
67892;PMS7003;54688;52.376;16.744;2023-07-31T16:32:41;2;2;
67892;PMS7003;54688;52.376;16.744;2023-07-31T16:35:43;2;2;
67892;PMS7003;54688;52.376;16.744;2023-07-31T16:41:45;2;2;
67892;PMS7003;54688;52.376;16.744;2023-07-31T16:44:47;2;1;
67892;PMS7003;54688;52.376;16.744;2023-07-31T16:47:50;2;2;
67892;PMS7003;54688;52.376;16.744;2023-07-31T16:50:52;2;2;
67892;PMS7003;54688;52.376;16.744;2023-07-31T16:53:54;1;1;
67892;PMS7003;54688;52.376;16.744;2023-07-31T16:56:57;1;1;
67892;PMS7003;54688;52.376;16.744;2023-07-31T16:59:59;2;2;
67892;PMS7003;54688;52.376;16.744;2023-07-31T17:03:02;1;1;
67892;PMS7003;54688;52.376;16.744;2023-07-31T17:06:05;4;3;
67892;PMS7003;54688;52.376;16.744;2023-07-31T17:09:07;3;2;
67892;PMS7003;54688;52.376;16.744;2023-07-31T17:12:10;3;3;
67892;PMS7003;54688;52.376;16.744;2023-07-31T17:15:12;2;2;
67892;PMS7003;54688;52.376;16.744;2023-07-31T17:18:14;5;4;
67892;PMS7003;54688;52.376;16.744;2023-07-31T17:21:17;4;3;
67892;PMS7003;54688;52.376;16.744;2023-07-31T17:24:19;3;3;
67892;PMS7003;54688;52.376;16.744;2023-07-31T17:27:22;3;3;
67892;PMS7003;54688;52.376;16.744;2023-07-31T17:30:24;2;2;
67892;PMS7003;54688;52.376;16.744;2023-07-31T17:33:26;4;2;
67892;PMS7003;54688;52.376;16.744;2023-07-31T17:36:29;2;2;
67892;PMS7003;54688;52.376;16.744;2023-07-31T17:39:31;4;3;
67892;PMS7003;54688;52.376;16.744;2023-07-31T17:42:34;4;3;
67892;PMS7003;54688;52.376;16.744;2023-07-31T17:45:36;3;3;
67892;PMS7003;54688;52.376;16.744;2023-07-31T17:48:38;4;2;
67892;PMS7003;54688;52.376;16.744;2023-07-31T17:51:41;3;3;
67892;PMS7003;54688;52.376;16.744;2023-07-31T17:54:43;2;2;
67892;PMS7003;54688;52.376;16.744;2023-07-31T17:57:45;3;2;
67892;PMS7003;54688;52.376;16.744;2023-07-31T18:00:47;2;2;
67892;PMS7003;54688;52.376;16.744;2023-07-31T18:03:49;4;1;
67892;PMS7003;54688;52.376;16.744;2023-07-31T18:06:50;2;1;
67892;PMS7003;54688;52.376;16.744;2023-07-31T18:09:52;4;2;
67892;PMS7003;54688;52.376;16.744;2023-07-31T18:12:54;3;2;
67892;PMS7003;54688;52.376;16.744;2023-07-31T18:15:57;3;3;
67892;PMS7003;54688;52.376;16.744;2023-07-31T18:18:59;4;3;
67892;PMS7003;54688;52.376;16.744;2023-07-31T18:22:02;2;2;
67892;PMS7003;54688;52.376;16.744;2023-07-31T18:25:05;6;2;
67892;PMS7003;54688;52.376;16.744;2023-07-31T18:28:07;4;4;
67892;PMS7003;54688;52.376;16.744;2023-07-31T18:31:09;4;2;
67892;PMS7003;54688;52.376;16.744;2023-07-31T18:34:11;3;3;
67892;PMS7003;54688;52.376;16.744;2023-07-31T18:37:13;2;2;
67892;PMS7003;54688;52.376;16.744;2023-07-31T18:40:15;1;1;
67892;PMS7003;54688;52.376;16.744;2023-07-31T18:43:18;4;3;
67892;PMS7003;54688;52.376;16.744;2023-07-31T18:46:19;3;2;
67892;PMS7003;54688;52.376;16.744;2023-07-31T18:49:22;2;2;
67892;PMS7003;54688;52.376;16.744;2023-07-31T18:52:25;7;6;
67892;PMS7003;54688;52.376;16.744;2023-07-31T18:55:27;8;5;
67892;PMS7003;54688;52.376;16.744;2023-07-31T18:58:30;4;3;
67892;PMS7003;54688;52.376;16.744;2023-07-31T19:01:32;4;4;
67892;PMS7003;54688;52.376;16.744;2023-07-31T19:04:35;8;3;
67892;PMS7003;54688;52.376;16.744;2023-07-31T19:10:36;2;2;
67892;PMS7003;54688;52.376;16.744;2023-07-31T19:13:39;4;4;
67892;PMS7003;54688;52.376;16.744;2023-07-31T19:16:41;3;3;
67892;PMS7003;54688;52.376;16.744;2023-07-31T19:19:44;5;4;
67892;PMS7003;54688;52.376;16.744;2023-07-31T19:22:46;4;4;
67892;PMS7003;54688;52.376;16.744;2023-07-31T19:25:48;4;4;
67892;PMS7003;54688;52.376;16.744;2023-07-31T19:28:50;3;3;
67892;PMS7003;54688;52.376;16.744;2023-07-31T19:31:52;4;4;
67892;PMS7003;54688;52.376;16.744;2023-07-31T19:34:54;4;4;
67892;PMS7003;54688;52.376;16.744;2023-07-31T19:37:57;4;4;
67892;PMS7003;54688;52.376;16.744;2023-07-31T19:40:59;3;3;
67892;PMS7003;54688;52.376;16.744;2023-07-31T19:44:02;5;2;
67892;PMS7003;54688;52.376;16.744;2023-07-31T19:47:04;3;3;
67892;PMS7003;54688;52.376;16.744;2023-07-31T19:50:07;4;3;
67892;PMS7003;54688;52.376;16.744;2023-07-31T19:53:09;3;3;
67892;PMS7003;54688;52.376;16.744;2023-07-31T19:56:12;5;4;
67892;PMS7003;54688;52.376;16.744;2023-07-31T19:59:13;5;2;
67892;PMS7003;54688;52.376;16.744;2023-07-31T20:05:15;5;4;
67892;PMS7003;54688;52.376;16.744;2023-07-31T20:08:17;4;4;
67892;PMS7003;54688;52.376;16.744;2023-07-31T20:11:19;2;2;
67892;PMS7003;54688;52.376;16.744;2023-07-31T20:14:21;5;4;
67892;PMS7003;54688;52.376;16.744;2023-07-31T20:20:23;4;2;
67892;PMS7003;54688;52.376;16.744;2023-07-31T20:23:25;4;3;
67892;PMS7003;54688;52.376;16.744;2023-07-31T20:26:27;6;3;
67892;PMS7003;54688;52.376;16.744;2023-07-31T20:29:30;4;2;
67892;PMS7003;54688;52.376;16.744;2023-07-31T20:32:32;3;3;
67892;PMS7003;54688;52.376;16.744;2023-07-31T20:35:34;2;2;
67892;PMS7003;54688;52.376;16.744;2023-07-31T20:38:36;5;5;
67892;PMS7003;54688;52.376;16.744;2023-07-31T20:41:39;5;5;
67892;PMS7003;54688;52.376;16.744;2023-07-31T20:44:41;5;3;
67892;PMS7003;54688;52.376;16.744;2023-07-31T20:47:43;4;3;
67892;PMS7003;54688;52.376;16.744;2023-07-31T20:50:45;4;3;
67892;PMS7003;54688;52.376;16.744;2023-07-31T20:53:48;4;4;
67892;PMS7003;54688;52.376;16.744;2023-07-31T20:56:50;3;3;
67892;PMS7003;54688;52.376;16.744;2023-07-31T20:59:53;4;3;
67892;PMS7003;54688;52.376;16.744;2023-07-31T21:02:55;4;4;